メインページ
METAR-TAF:

METAR-TAF

空港 :

イルクーツク国際空港

イルクーツク, ロシア

緯度: 52-16N, 経度: 104-19E, 海抜: 513m

現時点の気象観測

当レポートは23分前の23:30(UTC)に作成
西/北西の風 12kt
気温 16°C
湿度 77%
気圧 1005 hPa
視程10km以上
高度2100ftの千切れ雲あり

METAR: UIII 162330Z 30006MPS 9999 BKN021 16/12 Q1005 R30/60D NOSIG RMK QFE710/0946

時間: 07:53 (23:53 UTC)

予報

当レポートは53分前の23:00(UTC)に作成
予報は17日の 00時(UTC)から 17日の 24時(UTC)まで有効
西/北西の風 10kt
視程10km以上
高度2000ftの千切れ雲あり, 積乱雲.
17日の 04時(UTC)から 17日の 16時(UTC)まで一時的に
変向風 19kt
激しい雷雨, 小雨

TAF: UIII 162300Z 1700/1724 30005MPS 9999 BKN020CB TEMPO 1704/1716 VRB10MPS -TSRA

4,000以上の空港の気象観測と天気予報(METAR報とTAF報)

利用可能な観測所は地図上に黄色い丸と赤い丸で示す。

丸の上にカーソルを重ねると観測所名を参照できる。

次にクリックすると気象観測と天気予報を参照できる。

マップの切り替え:黒色「×」印の緑ボタンをクリックして拡大、「-」印の緑ボタンをクリックして縮小、緑色の三角印をクリックして隣りの地図に切り替え


METAR-TAF: